sensor_id;sensor_type;location;lat;lon;timestamp;P1;durP1;ratioP1;P2;durP2;ratioP2
16837;SDS011;19510;54.486;9.046;2023-02-04T07:23:47;4.97;;;3.07;;
16837;SDS011;19510;54.486;9.046;2023-02-04T07:26:13;6.10;;;3.60;;
16837;SDS011;19510;54.486;9.046;2023-02-04T07:28:39;4.70;;;3.43;;
16837;SDS011;19510;54.486;9.046;2023-02-04T07:31:05;5.67;;;3.23;;
16837;SDS011;19510;54.486;9.046;2023-02-04T07:33:31;4.60;;;3.27;;
16837;SDS011;19510;54.486;9.046;2023-02-04T07:35:56;4.30;;;3.17;;
16837;SDS011;19510;54.486;9.046;2023-02-04T07:38:22;5.17;;;2.93;;
16837;SDS011;19510;54.486;9.046;2023-02-04T07:40:51;5.97;;;3.20;;
16837;SDS011;19510;54.486;9.046;2023-02-04T07:43:16;5.50;;;3.67;;
16837;SDS011;19510;54.486;9.046;2023-02-04T07:45:42;4.80;;;3.40;;
16837;SDS011;19510;54.486;9.046;2023-02-04T07:48:08;4.10;;;2.83;;
16837;SDS011;19510;54.486;9.046;2023-02-04T07:50:34;5.63;;;3.00;;
16837;SDS011;19510;54.486;9.046;2023-02-04T07:53:00;6.53;;;3.27;;
16837;SDS011;19510;54.486;9.046;2023-02-04T07:55:26;4.47;;;3.33;;
16837;SDS011;19510;54.486;9.046;2023-02-04T07:57:52;7.30;;;2.80;;
16837;SDS011;19510;54.486;9.046;2023-02-04T08:00:18;8.27;;;3.03;;
16837;SDS011;19510;54.486;9.046;2023-02-04T08:02:44;11.70;;;6.83;;
16837;SDS011;19510;54.486;9.046;2023-02-04T08:05:11;10.03;;;5.73;;
16837;SDS011;19510;54.486;9.046;2023-02-04T08:07:37;5.83;;;3.47;;
16837;SDS011;19510;54.486;9.046;2023-02-04T08:10:06;3.27;;;2.63;;
16837;SDS011;19510;54.486;9.046;2023-02-04T08:12:34;7.70;;;2.80;;
16837;SDS011;19510;54.486;9.046;2023-02-04T08:15:00;7.53;;;3.37;;
16837;SDS011;19510;54.486;9.046;2023-02-04T08:17:28;4.93;;;3.10;;
16837;SDS011;19510;54.486;9.046;2023-02-04T08:19:54;4.40;;;2.80;;
16837;SDS011;19510;54.486;9.046;2023-02-04T08:22:20;5.03;;;3.20;;
16837;SDS011;19510;54.486;9.046;2023-02-04T08:24:46;4.57;;;2.60;;
16837;SDS011;19510;54.486;9.046;2023-02-04T08:27:15;5.23;;;2.70;;
16837;SDS011;19510;54.486;9.046;2023-02-04T08:29:40;4.37;;;3.13;;
16837;SDS011;19510;54.486;9.046;2023-02-04T08:32:08;6.37;;;2.33;;
16837;SDS011;19510;54.486;9.046;2023-02-04T08:34:34;5.90;;;3.00;;
16837;SDS011;19510;54.486;9.046;2023-02-04T08:37:00;7.13;;;3.03;;
16837;SDS011;19510;54.486;9.046;2023-02-04T08:39:26;6.97;;;3.07;;
16837;SDS011;19510;54.486;9.046;2023-02-04T08:41:52;4.50;;;2.57;;
16837;SDS011;19510;54.486;9.046;2023-02-04T08:44:17;5.07;;;2.40;;
16837;SDS011;19510;54.486;9.046;2023-02-04T08:46:44;6.03;;;2.70;;
16837;SDS011;19510;54.486;9.046;2023-02-04T08:49:10;2.87;;;2.03;;
16837;SDS011;19510;54.486;9.046;2023-02-04T08:51:37;3.63;;;2.00;;
16837;SDS011;19510;54.486;9.046;2023-02-04T08:54:03;3.63;;;2.00;;
16837;SDS011;19510;54.486;9.046;2023-02-04T08:56:29;2.53;;;1.90;;
16837;SDS011;19510;54.486;9.046;2023-02-04T08:58:57;3.53;;;1.60;;
16837;SDS011;19510;54.486;9.046;2023-02-04T09:01:22;2.70;;;1.60;;
16837;SDS011;19510;54.486;9.046;2023-02-04T09:03:48;3.80;;;1.40;;
16837;SDS011;19510;54.486;9.046;2023-02-04T09:06:14;2.10;;;1.50;;
16837;SDS011;19510;54.486;9.046;2023-02-04T09:08:39;2.97;;;1.40;;
16837;SDS011;19510;54.486;9.046;2023-02-04T09:11:05;1.53;;;1.20;;
16837;SDS011;19510;54.486;9.046;2023-02-04T09:13:31;2.97;;;1.23;;
16837;SDS011;19510;54.486;9.046;2023-02-04T09:16:00;1.63;;;1.20;;
16837;SDS011;19510;54.486;9.046;2023-02-04T09:18:25;22.13;;;12.60;;
16837;SDS011;19510;54.486;9.046;2023-02-04T09:20:54;7.20;;;3.70;;
16837;SDS011;19510;54.486;9.046;2023-02-04T09:23:22;3.33;;;2.00;;
16837;SDS011;19510;54.486;9.046;2023-02-04T09:25:51;2.63;;;1.80;;
16837;SDS011;19510;54.486;9.046;2023-02-04T09:28:17;2.07;;;1.60;;
16837;SDS011;19510;54.486;9.046;2023-02-04T09:30:49;4.43;;;1.90;;
16837;SDS011;19510;54.486;9.046;2023-02-04T09:33:14;2.73;;;1.63;;
16837;SDS011;19510;54.486;9.046;2023-02-04T09:35:40;3.53;;;1.50;;
16837;SDS011;19510;54.486;9.046;2023-02-04T09:38:06;4.10;;;1.87;;
16837;SDS011;19510;54.486;9.046;2023-02-04T09:40:33;3.17;;;1.47;;
16837;SDS011;19510;54.486;9.046;2023-02-04T09:43:01;5.87;;;2.50;;
16837;SDS011;19510;54.486;9.046;2023-02-04T09:45:29;6.63;;;3.93;;
16837;SDS011;19510;54.486;9.046;2023-02-04T09:47:58;5.07;;;2.13;;
16837;SDS011;19510;54.486;9.046;2023-02-04T09:50:26;2.93;;;1.80;;
16837;SDS011;19510;54.486;9.046;2023-02-04T09:52:56;2.60;;;1.70;;
16837;SDS011;19510;54.486;9.046;2023-02-04T09:55:34;1.80;;;1.30;;
16837;SDS011;19510;54.486;9.046;2023-02-04T09:58:07;3.13;;;1.70;;
16837;SDS011;19510;54.486;9.046;2023-02-04T10:00:37;2.30;;;1.60;;
16837;SDS011;19510;54.486;9.046;2023-02-04T10:03:08;3.70;;;1.73;;
16837;SDS011;19510;54.486;9.046;2023-02-04T10:05:41;3.17;;;1.27;;
16837;SDS011;19510;54.486;9.046;2023-02-04T10:08:08;4.70;;;1.60;;
16837;SDS011;19510;54.486;9.046;2023-02-04T10:10:39;1.83;;;1.20;;
16837;SDS011;19510;54.486;9.046;2023-02-04T10:13:05;2.77;;;1.40;;
16837;SDS011;19510;54.486;9.046;2023-02-04T10:15:37;2.43;;;1.50;;
16837;SDS011;19510;54.486;9.046;2023-02-04T10:18:04;3.23;;;1.53;;
16837;SDS011;19510;54.486;9.046;2023-02-04T10:20:32;1.90;;;1.47;;
16837;SDS011;19510;54.486;9.046;2023-02-04T10:22:58;3.70;;;1.30;;
16837;SDS011;19510;54.486;9.046;2023-02-04T10:25:24;2.87;;;1.40;;
16837;SDS011;19510;54.486;9.046;2023-02-04T10:30:18;2.33;;;1.37;;
16837;SDS011;19510;54.486;9.046;2023-02-04T10:32:59;1.63;;;1.17;;
16837;SDS011;19510;54.486;9.046;2023-02-04T10:35:52;1.77;;;1.23;;
16837;SDS011;19510;54.486;9.046;2023-02-04T10:38:20;1.60;;;1.13;;
16837;SDS011;19510;54.486;9.046;2023-02-04T10:40:47;2.63;;;1.07;;
16837;SDS011;19510;54.486;9.046;2023-02-04T10:43:23;1.93;;;1.13;;
16837;SDS011;19510;54.486;9.046;2023-02-04T10:46:02;1.53;;;1.20;;
16837;SDS011;19510;54.486;9.046;2023-02-04T10:48:28;1.47;;;0.93;;
16837;SDS011;19510;54.486;9.046;2023-02-04T10:51:03;3.07;;;1.30;;
16837;SDS011;19510;54.486;9.046;2023-02-04T10:53:29;2.67;;;1.20;;
16837;SDS011;19510;54.486;9.046;2023-02-04T10:56:33;2.73;;;1.53;;
16837;SDS011;19510;54.486;9.046;2023-02-04T10:58:59;1.90;;;1.03;;
16837;SDS011;19510;54.486;9.046;2023-02-04T11:01:24;4.40;;;1.20;;
16837;SDS011;19510;54.486;9.046;2023-02-04T11:03:52;1.10;;;0.97;;
16837;SDS011;19510;54.486;9.046;2023-02-04T11:09:40;1.53;;;1.10;;
16837;SDS011;19510;54.486;9.046;2023-02-04T11:12:34;4.23;;;1.20;;
16837;SDS011;19510;54.486;9.046;2023-02-04T11:15:02;2.47;;;1.47;;
16837;SDS011;19510;54.486;9.046;2023-02-04T11:17:31;2.10;;;1.20;;
16837;SDS011;19510;54.486;9.046;2023-02-04T11:20:12;2.03;;;1.43;;
16837;SDS011;19510;54.486;9.046;2023-02-04T11:22:56;1.40;;;1.17;;
16837;SDS011;19510;54.486;9.046;2023-02-04T11:31:25;2.23;;;1.00;;
16837;SDS011;19510;54.486;9.046;2023-02-04T11:37:01;2.00;;;1.10;;
16837;SDS011;19510;54.486;9.046;2023-02-04T11:39:42;2.93;;;1.03;;
16837;SDS011;19510;54.486;9.046;2023-02-04T11:42:20;2.53;;;1.30;;
16837;SDS011;19510;54.486;9.046;2023-02-04T11:45:34;2.97;;;1.30;;
16837;SDS011;19510;54.486;9.046;2023-02-04T11:47:37;2.13;;;1.00;;
16837;SDS011;19510;54.486;9.046;2023-02-04T11:50:16;4.67;;;1.17;;
16837;SDS011;19510;54.486;9.046;2023-02-04T11:52:53;1.37;;;1.03;;
16837;SDS011;19510;54.486;9.046;2023-02-04T11:55:19;1.60;;;1.47;;
16837;SDS011;19510;54.486;9.046;2023-02-04T11:57:49;1.73;;;1.10;;
16837;SDS011;19510;54.486;9.046;2023-02-04T12:00:18;3.43;;;1.53;;
16837;SDS011;19510;54.486;9.046;2023-02-04T12:02:50;2.03;;;1.30;;
16837;SDS011;19510;54.486;9.046;2023-02-04T12:05:21;2.00;;;1.00;;
16837;SDS011;19510;54.486;9.046;2023-02-04T12:08:07;5.13;;;0.83;;
16837;SDS011;19510;54.486;9.046;2023-02-04T12:10:35;0.87;;;0.70;;
16837;SDS011;19510;54.486;9.046;2023-02-04T12:13:01;1.33;;;0.70;;
16837;SDS011;19510;54.486;9.046;2023-02-04T12:15:40;1.30;;;1.00;;
16837;SDS011;19510;54.486;9.046;2023-02-04T12:18:06;1.53;;;1.17;;
16837;SDS011;19510;54.486;9.046;2023-02-04T12:20:38;5.77;;;1.97;;
16837;SDS011;19510;54.486;9.046;2023-02-04T12:23:09;1.00;;;0.80;;
16837;SDS011;19510;54.486;9.046;2023-02-04T12:25:34;1.60;;;0.83;;
16837;SDS011;19510;54.486;9.046;2023-02-04T12:28:00;4.55;;;1.00;;
16837;SDS011;19510;54.486;9.046;2023-02-04T12:30:26;0.90;;;0.90;;
16837;SDS011;19510;54.486;9.046;2023-02-04T12:32:52;2.73;;;0.90;;
16837;SDS011;19510;54.486;9.046;2023-02-04T12:35:18;1.10;;;0.80;;
16837;SDS011;19510;54.486;9.046;2023-02-04T12:37:43;2.03;;;1.10;;
16837;SDS011;19510;54.486;9.046;2023-02-04T12:40:15;2.07;;;1.00;;
16837;SDS011;19510;54.486;9.046;2023-02-04T12:42:46;1.57;;;1.10;;
16837;SDS011;19510;54.486;9.046;2023-02-04T12:45:12;1.80;;;0.90;;
16837;SDS011;19510;54.486;9.046;2023-02-04T12:47:40;2.30;;;1.07;;
16837;SDS011;19510;54.486;9.046;2023-02-04T12:50:06;1.33;;;0.77;;
16837;SDS011;19510;54.486;9.046;2023-02-04T12:52:33;3.20;;;0.93;;
16837;SDS011;19510;54.486;9.046;2023-02-04T12:54:59;2.00;;;1.00;;
16837;SDS011;19510;54.486;9.046;2023-02-04T12:57:25;6.03;;;1.33;;
16837;SDS011;19510;54.486;9.046;2023-02-04T12:59:51;1.80;;;0.90;;
16837;SDS011;19510;54.486;9.046;2023-02-04T13:02:17;2.83;;;0.80;;
16837;SDS011;19510;54.486;9.046;2023-02-04T13:04:45;1.73;;;0.90;;
16837;SDS011;19510;54.486;9.046;2023-02-04T13:07:13;2.40;;;1.00;;
16837;SDS011;19510;54.486;9.046;2023-02-04T13:09:41;2.83;;;0.97;;
16837;SDS011;19510;54.486;9.046;2023-02-04T13:12:09;1.50;;;1.10;;
16837;SDS011;19510;54.486;9.046;2023-02-04T13:14:38;1.60;;;0.70;;
16837;SDS011;19510;54.486;9.046;2023-02-04T13:17:05;4.37;;;1.00;;
16837;SDS011;19510;54.486;9.046;2023-02-04T13:19:32;1.37;;;0.90;;
16837;SDS011;19510;54.486;9.046;2023-02-04T13:21:59;0.87;;;0.77;;
16837;SDS011;19510;54.486;9.046;2023-02-04T13:24:27;3.53;;;1.37;;
16837;SDS011;19510;54.486;9.046;2023-02-04T13:26:55;1.00;;;0.90;;
16837;SDS011;19510;54.486;9.046;2023-02-04T13:29:23;3.80;;;1.77;;
16837;SDS011;19510;54.486;9.046;2023-02-04T13:31:49;2.60;;;1.20;;
16837;SDS011;19510;54.486;9.046;2023-02-04T13:34:17;1.93;;;0.90;;
16837;SDS011;19510;54.486;9.046;2023-02-04T13:36:45;1.20;;;1.10;;
16837;SDS011;19510;54.486;9.046;2023-02-04T13:39:13;1.73;;;1.00;;
16837;SDS011;19510;54.486;9.046;2023-02-04T13:41:39;4.40;;;0.93;;
16837;SDS011;19510;54.486;9.046;2023-02-04T13:44:05;1.07;;;0.77;;
16837;SDS011;19510;54.486;9.046;2023-02-04T13:46:31;4.00;;;0.90;;
16837;SDS011;19510;54.486;9.046;2023-02-04T13:48:57;0.97;;;0.77;;
16837;SDS011;19510;54.486;9.046;2023-02-04T13:51:23;2.80;;;0.90;;
16837;SDS011;19510;54.486;9.046;2023-02-04T13:53:52;2.53;;;0.80;;
16837;SDS011;19510;54.486;9.046;2023-02-04T13:56:20;1.00;;;0.90;;
16837;SDS011;19510;54.486;9.046;2023-02-04T13:58:46;0.73;;;0.63;;
16837;SDS011;19510;54.486;9.046;2023-02-04T14:01:14;3.87;;;0.90;;
16837;SDS011;19510;54.486;9.046;2023-02-04T14:03:41;3.37;;;1.30;;
16837;SDS011;19510;54.486;9.046;2023-02-04T14:06:08;1.47;;;1.10;;
16837;SDS011;19510;54.486;9.046;2023-02-04T14:08:34;5.00;;;1.50;;
16837;SDS011;19510;54.486;9.046;2023-02-04T14:10:59;1.47;;;1.00;;
16837;SDS011;19510;54.486;9.046;2023-02-04T14:13:25;1.17;;;1.03;;
16837;SDS011;19510;54.486;9.046;2023-02-04T14:15:51;1.27;;;0.70;;
16837;SDS011;19510;54.486;9.046;2023-02-04T14:18:17;1.57;;;0.90;;
16837;SDS011;19510;54.486;9.046;2023-02-04T14:20:43;1.47;;;0.80;;
16837;SDS011;19510;54.486;9.046;2023-02-04T14:23:09;1.67;;;1.33;;
16837;SDS011;19510;54.486;9.046;2023-02-04T14:25:36;3.37;;;0.83;;
16837;SDS011;19510;54.486;9.046;2023-02-04T14:28:02;2.50;;;0.70;;
16837;SDS011;19510;54.486;9.046;2023-02-04T14:30:28;1.87;;;1.03;;
16837;SDS011;19510;54.486;9.046;2023-02-04T14:32:54;1.67;;;1.00;;
16837;SDS011;19510;54.486;9.046;2023-02-04T14:35:21;2.50;;;1.40;;
16837;SDS011;19510;54.486;9.046;2023-02-04T14:37:55;1.73;;;1.13;;
16837;SDS011;19510;54.486;9.046;2023-02-04T14:40:22;1.50;;;0.87;;
16837;SDS011;19510;54.486;9.046;2023-02-04T14:42:48;2.00;;;0.90;;
16837;SDS011;19510;54.486;9.046;2023-02-04T14:45:16;1.90;;;0.90;;
16837;SDS011;19510;54.486;9.046;2023-02-04T14:47:42;2.00;;;0.90;;
16837;SDS011;19510;54.486;9.046;2023-02-04T14:50:10;0.80;;;0.80;;
16837;SDS011;19510;54.486;9.046;2023-02-04T14:52:41;1.43;;;1.00;;
16837;SDS011;19510;54.486;9.046;2023-02-04T14:55:07;2.77;;;0.90;;
16837;SDS011;19510;54.486;9.046;2023-02-04T14:57:37;3.07;;;1.67;;
16837;SDS011;19510;54.486;9.046;2023-02-04T15:00:03;6.60;;;2.30;;
16837;SDS011;19510;54.486;9.046;2023-02-04T15:02:30;3.20;;;1.83;;
16837;SDS011;19510;54.486;9.046;2023-02-04T15:04:56;3.13;;;1.90;;
16837;SDS011;19510;54.486;9.046;2023-02-04T15:07:22;5.10;;;2.13;;
16837;SDS011;19510;54.486;9.046;2023-02-04T15:09:52;5.57;;;2.27;;
16837;SDS011;19510;54.486;9.046;2023-02-04T15:12:18;2.67;;;1.77;;
16837;SDS011;19510;54.486;9.046;2023-02-04T15:14:46;8.83;;;4.70;;
16837;SDS011;19510;54.486;9.046;2023-02-04T15:17:12;6.90;;;3.13;;
16837;SDS011;19510;54.486;9.046;2023-02-04T15:19:40;6.77;;;2.23;;
16837;SDS011;19510;54.486;9.046;2023-02-04T15:22:06;4.47;;;2.10;;
16837;SDS011;19510;54.486;9.046;2023-02-04T15:24:32;2.17;;;1.70;;
16837;SDS011;19510;54.486;9.046;2023-02-04T15:26:59;6.47;;;2.27;;
16837;SDS011;19510;54.486;9.046;2023-02-04T15:29:25;5.33;;;2.40;;
16837;SDS011;19510;54.486;9.046;2023-02-04T15:31:55;5.17;;;3.63;;
16837;SDS011;19510;54.486;9.046;2023-02-04T15:34:21;23.00;;;13.00;;
16837;SDS011;19510;54.486;9.046;2023-02-04T15:36:50;20.20;;;12.90;;
16837;SDS011;19510;54.486;9.046;2023-02-04T15:39:20;13.53;;;8.13;;
16837;SDS011;19510;54.486;9.046;2023-02-04T15:41:48;16.00;;;9.27;;
16837;SDS011;19510;54.486;9.046;2023-02-04T15:44:14;7.10;;;3.87;;
16837;SDS011;19510;54.486;9.046;2023-02-04T15:46:44;4.63;;;3.80;;
16837;SDS011;19510;54.486;9.046;2023-02-04T15:49:13;3.43;;;3.00;;
16837;SDS011;19510;54.486;9.046;2023-02-04T15:51:42;6.67;;;3.87;;
16837;SDS011;19510;54.486;9.046;2023-02-04T15:54:10;5.93;;;3.37;;
16837;SDS011;19510;54.486;9.046;2023-02-04T15:56:43;14.43;;;7.00;;
16837;SDS011;19510;54.486;9.046;2023-02-04T15:59:09;25.93;;;12.07;;
16837;SDS011;19510;54.486;9.046;2023-02-04T16:01:39;21.80;;;10.57;;
16837;SDS011;19510;54.486;9.046;2023-02-04T16:04:07;11.57;;;6.60;;
16837;SDS011;19510;54.486;9.046;2023-02-04T16:06:38;6.67;;;4.40;;
16837;SDS011;19510;54.486;9.046;2023-02-04T16:09:04;8.67;;;4.60;;
16837;SDS011;19510;54.486;9.046;2023-02-04T16:11:29;5.60;;;4.17;;
16837;SDS011;19510;54.486;9.046;2023-02-04T16:13:56;4.73;;;2.80;;
16837;SDS011;19510;54.486;9.046;2023-02-04T16:16:23;4.33;;;2.70;;
16837;SDS011;19510;54.486;9.046;2023-02-04T16:18:49;6.40;;;3.00;;
16837;SDS011;19510;54.486;9.046;2023-02-04T16:21:15;4.67;;;2.80;;
16837;SDS011;19510;54.486;9.046;2023-02-04T16:23:45;5.43;;;3.03;;
16837;SDS011;19510;54.486;9.046;2023-02-04T16:26:11;2.23;;;1.80;;
16837;SDS011;19510;54.486;9.046;2023-02-04T16:28:39;8.20;;;3.63;;
16837;SDS011;19510;54.486;9.046;2023-02-04T16:31:05;6.60;;;3.80;;
16837;SDS011;19510;54.486;9.046;2023-02-04T16:33:33;6.00;;;3.07;;
16837;SDS011;19510;54.486;9.046;2023-02-04T16:38:32;4.83;;;3.30;;
16837;SDS011;19510;54.486;9.046;2023-02-04T16:41:00;6.40;;;3.03;;
16837;SDS011;19510;54.486;9.046;2023-02-04T16:43:26;5.03;;;3.07;;
16837;SDS011;19510;54.486;9.046;2023-02-04T16:45:53;5.87;;;2.77;;
16837;SDS011;19510;54.486;9.046;2023-02-04T16:48:19;6.57;;;3.40;;
16837;SDS011;19510;54.486;9.046;2023-02-04T16:50:47;5.70;;;3.03;;
16837;SDS011;19510;54.486;9.046;2023-02-04T16:53:13;7.47;;;3.37;;
16837;SDS011;19510;54.486;9.046;2023-02-04T16:55:43;6.43;;;3.60;;
16837;SDS011;19510;54.486;9.046;2023-02-04T16:58:10;7.83;;;3.60;;
16837;SDS011;19510;54.486;9.046;2023-02-04T17:00:37;17.37;;;8.67;;
16837;SDS011;19510;54.486;9.046;2023-02-04T17:03:08;8.13;;;4.33;;
16837;SDS011;19510;54.486;9.046;2023-02-04T17:05:35;15.23;;;7.17;;
16837;SDS011;19510;54.486;9.046;2023-02-04T17:08:01;13.30;;;6.50;;
16837;SDS011;19510;54.486;9.046;2023-02-04T17:10:31;9.73;;;5.37;;
16837;SDS011;19510;54.486;9.046;2023-02-04T17:13:15;7.13;;;3.90;;
16837;SDS011;19510;54.486;9.046;2023-02-04T17:15:41;4.03;;;2.73;;
16837;SDS011;19510;54.486;9.046;2023-02-04T17:18:07;5.43;;;2.40;;
16837;SDS011;19510;54.486;9.046;2023-02-04T17:20:37;4.67;;;3.20;;
16837;SDS011;19510;54.486;9.046;2023-02-04T17:23:03;6.97;;;2.50;;
16837;SDS011;19510;54.486;9.046;2023-02-04T17:25:29;4.50;;;2.27;;
16837;SDS011;19510;54.486;9.046;2023-02-04T17:27:55;2.80;;;1.83;;
16837;SDS011;19510;54.486;9.046;2023-02-04T17:30:21;3.07;;;1.63;;
16837;SDS011;19510;54.486;9.046;2023-02-04T17:32:47;8.30;;;4.57;;
16837;SDS011;19510;54.486;9.046;2023-02-04T17:35:15;10.80;;;5.30;;
16837;SDS011;19510;54.486;9.046;2023-02-04T17:37:41;6.73;;;3.20;;
16837;SDS011;19510;54.486;9.046;2023-02-04T17:40:08;3.73;;;2.87;;
16837;SDS011;19510;54.486;9.046;2023-02-04T17:42:40;3.07;;;1.97;;
16837;SDS011;19510;54.486;9.046;2023-02-04T17:45:09;7.70;;;2.70;;
16837;SDS011;19510;54.486;9.046;2023-02-04T17:47:38;5.40;;;2.20;;
16837;SDS011;19510;54.486;9.046;2023-02-04T17:50:07;2.60;;;2.03;;
16837;SDS011;19510;54.486;9.046;2023-02-04T17:52:41;3.10;;;2.23;;
16837;SDS011;19510;54.486;9.046;2023-02-04T17:55:22;5.77;;;2.90;;
16837;SDS011;19510;54.486;9.046;2023-02-04T17:57:52;4.80;;;2.33;;
16837;SDS011;19510;54.486;9.046;2023-02-04T18:00:20;3.30;;;2.10;;
16837;SDS011;19510;54.486;9.046;2023-02-04T18:02:50;3.07;;;1.97;;
16837;SDS011;19510;54.486;9.046;2023-02-04T18:05:20;3.70;;;1.70;;
16837;SDS011;19510;54.486;9.046;2023-02-04T18:10:32;2.07;;;1.70;;
16837;SDS011;19510;54.486;9.046;2023-02-04T18:15:48;2.60;;;1.90;;
16837;SDS011;19510;54.486;9.046;2023-02-04T18:20:47;11.37;;;6.30;;
16837;SDS011;19510;54.486;9.046;2023-02-04T18:23:38;7.10;;;3.47;;
16837;SDS011;19510;54.486;9.046;2023-02-04T18:26:12;4.80;;;2.97;;
16837;SDS011;19510;54.486;9.046;2023-02-04T18:28:46;4.67;;;2.40;;
16837;SDS011;19510;54.486;9.046;2023-02-04T18:31:32;3.37;;;2.47;;
16837;SDS011;19510;54.486;9.046;2023-02-04T18:34:01;4.37;;;3.27;;
16837;SDS011;19510;54.486;9.046;2023-02-04T18:36:42;4.90;;;3.10;;
16837;SDS011;19510;54.486;9.046;2023-02-04T18:39:13;5.07;;;2.97;;
16837;SDS011;19510;54.486;9.046;2023-02-04T18:41:42;4.73;;;2.90;;
16837;SDS011;19510;54.486;9.046;2023-02-04T18:47:04;3.90;;;3.03;;
16837;SDS011;19510;54.486;9.046;2023-02-04T18:49:48;4.97;;;3.10;;
16837;SDS011;19510;54.486;9.046;2023-02-04T18:52:18;5.57;;;3.00;;
16837;SDS011;19510;54.486;9.046;2023-02-04T18:54:50;7.53;;;3.10;;
16837;SDS011;19510;54.486;9.046;2023-02-04T18:57:38;7.23;;;3.37;;
16837;SDS011;19510;54.486;9.046;2023-02-04T19:02:41;5.37;;;3.50;;
16837;SDS011;19510;54.486;9.046;2023-02-04T19:05:31;5.67;;;3.40;;
16837;SDS011;19510;54.486;9.046;2023-02-04T19:10:43;3.37;;;2.77;;
16837;SDS011;19510;54.486;9.046;2023-02-04T19:15:56;4.43;;;3.10;;
16837;SDS011;19510;54.486;9.046;2023-02-04T19:18:39;3.90;;;2.50;;
16837;SDS011;19510;54.486;9.046;2023-02-04T19:23:49;3.00;;;2.40;;
16837;SDS011;19510;54.486;9.046;2023-02-04T19:26:27;7.40;;;3.10;;
16837;SDS011;19510;54.486;9.046;2023-02-04T19:28:56;4.47;;;3.00;;
16837;SDS011;19510;54.486;9.046;2023-02-04T19:31:23;6.97;;;3.43;;
16837;SDS011;19510;54.486;9.046;2023-02-04T19:33:58;7.13;;;5.30;;
16837;SDS011;19510;54.486;9.046;2023-02-04T19:36:42;5.97;;;4.27;;
16837;SDS011;19510;54.486;9.046;2023-02-04T19:41:49;5.67;;;3.90;;
16837;SDS011;19510;54.486;9.046;2023-02-04T19:47:13;3.80;;;3.23;;
16837;SDS011;19510;54.486;9.046;2023-02-04T19:52:41;5.20;;;3.57;;
16837;SDS011;19510;54.486;9.046;2023-02-04T20:01:04;4.13;;;3.07;;
16837;SDS011;19510;54.486;9.046;2023-02-04T20:03:35;3.67;;;2.57;;
16837;SDS011;19510;54.486;9.046;2023-02-04T20:09:13;6.47;;;2.63;;
16837;SDS011;19510;54.486;9.046;2023-02-04T20:11:52;5.33;;;2.90;;
16837;SDS011;19510;54.486;9.046;2023-02-04T20:14:22;3.73;;;2.50;;
16837;SDS011;19510;54.486;9.046;2023-02-04T20:16:57;4.73;;;2.67;;
16837;SDS011;19510;54.486;9.046;2023-02-04T20:24:42;5.30;;;3.27;;
16837;SDS011;19510;54.486;9.046;2023-02-04T20:32:33;5.17;;;2.67;;
16837;SDS011;19510;54.486;9.046;2023-02-04T20:37:42;14.10;;;6.60;;
16837;SDS011;19510;54.486;9.046;2023-02-04T20:40:12;7.90;;;4.40;;
16837;SDS011;19510;54.486;9.046;2023-02-04T20:42:46;10.03;;;6.20;;
16837;SDS011;19510;54.486;9.046;2023-02-04T20:47:52;11.40;;;6.87;;
16837;SDS011;19510;54.486;9.046;2023-02-04T20:50:38;14.20;;;7.93;;
16837;SDS011;19510;54.486;9.046;2023-02-04T20:58:27;8.07;;;5.33;;
16837;SDS011;19510;54.486;9.046;2023-02-04T21:01:02;8.07;;;3.87;;
16837;SDS011;19510;54.486;9.046;2023-02-04T21:06:53;8.70;;;4.47;;
16837;SDS011;19510;54.486;9.046;2023-02-04T21:09:26;7.23;;;3.10;;
16837;SDS011;19510;54.486;9.046;2023-02-04T21:11:58;6.53;;;4.10;;
16837;SDS011;19510;54.486;9.046;2023-02-04T21:14:28;4.23;;;3.17;;
16837;SDS011;19510;54.486;9.046;2023-02-04T21:16:56;4.30;;;3.03;;
16837;SDS011;19510;54.486;9.046;2023-02-04T21:19:22;4.33;;;3.23;;
16837;SDS011;19510;54.486;9.046;2023-02-04T21:21:49;5.93;;;3.90;;
16837;SDS011;19510;54.486;9.046;2023-02-04T21:24:15;7.17;;;3.90;;
16837;SDS011;19510;54.486;9.046;2023-02-04T21:26:42;4.67;;;2.67;;
16837;SDS011;19510;54.486;9.046;2023-02-04T21:29:16;4.07;;;2.60;;
16837;SDS011;19510;54.486;9.046;2023-02-04T21:31:42;3.80;;;3.13;;
16837;SDS011;19510;54.486;9.046;2023-02-04T21:34:13;5.80;;;2.90;;
16837;SDS011;19510;54.486;9.046;2023-02-04T21:36:39;2.90;;;2.40;;
16837;SDS011;19510;54.486;9.046;2023-02-04T21:39:08;7.23;;;3.53;;
16837;SDS011;19510;54.486;9.046;2023-02-04T21:41:36;3.73;;;2.90;;
16837;SDS011;19510;54.486;9.046;2023-02-04T21:44:02;3.37;;;2.33;;
16837;SDS011;19510;54.486;9.046;2023-02-04T21:46:31;2.73;;;2.20;;
16837;SDS011;19510;54.486;9.046;2023-02-04T21:48:57;3.53;;;2.67;;
16837;SDS011;19510;54.486;9.046;2023-02-04T21:51:23;5.43;;;2.60;;
16837;SDS011;19510;54.486;9.046;2023-02-04T21:53:51;4.67;;;2.60;;
16837;SDS011;19510;54.486;9.046;2023-02-04T21:56:18;3.83;;;2.63;;
16837;SDS011;19510;54.486;9.046;2023-02-04T21:58:43;4.70;;;3.00;;
16837;SDS011;19510;54.486;9.046;2023-02-04T22:01:09;3.47;;;2.50;;
16837;SDS011;19510;54.486;9.046;2023-02-04T22:03:37;4.10;;;2.80;;
16837;SDS011;19510;54.486;9.046;2023-02-04T22:06:16;4.63;;;2.40;;
16837;SDS011;19510;54.486;9.046;2023-02-04T22:08:41;4.67;;;2.53;;
16837;SDS011;19510;54.486;9.046;2023-02-04T22:11:07;5.90;;;2.70;;
16837;SDS011;19510;54.486;9.046;2023-02-04T22:13:32;2.70;;;2.10;;
16837;SDS011;19510;54.486;9.046;2023-02-04T22:16:00;6.40;;;2.57;;
16837;SDS011;19510;54.486;9.046;2023-02-04T22:18:26;4.40;;;2.50;;
16837;SDS011;19510;54.486;9.046;2023-02-04T22:20:52;5.30;;;2.23;;
16837;SDS011;19510;54.486;9.046;2023-02-04T22:23:20;3.27;;;2.07;;
16837;SDS011;19510;54.486;9.046;2023-02-04T22:25:48;4.77;;;2.20;;
16837;SDS011;19510;54.486;9.046;2023-02-04T22:28:16;5.37;;;2.80;;
16837;SDS011;19510;54.486;9.046;2023-02-04T22:30:42;3.70;;;2.80;;
16837;SDS011;19510;54.486;9.046;2023-02-04T22:33:08;3.33;;;2.03;;
16837;SDS011;19510;54.486;9.046;2023-02-04T22:35:38;3.70;;;2.20;;
16837;SDS011;19510;54.486;9.046;2023-02-04T22:38:03;5.17;;;2.27;;
16837;SDS011;19510;54.486;9.046;2023-02-04T22:40:32;6.93;;;2.33;;
16837;SDS011;19510;54.486;9.046;2023-02-04T22:43:00;4.80;;;2.40;;
16837;SDS011;19510;54.486;9.046;2023-02-04T22:45:30;3.33;;;2.17;;
16837;SDS011;19510;54.486;9.046;2023-02-04T22:48:01;2.33;;;2.00;;
16837;SDS011;19510;54.486;9.046;2023-02-04T22:50:30;3.73;;;2.40;;
16837;SDS011;19510;54.486;9.046;2023-02-04T22:52:56;4.27;;;2.37;;
16837;SDS011;19510;54.486;9.046;2023-02-04T22:55:24;5.93;;;2.30;;
16837;SDS011;19510;54.486;9.046;2023-02-04T22:57:49;3.57;;;2.47;;
16837;SDS011;19510;54.486;9.046;2023-02-04T23:00:15;4.00;;;2.13;;
16837;SDS011;19510;54.486;9.046;2023-02-04T23:02:42;3.23;;;2.33;;
16837;SDS011;19510;54.486;9.046;2023-02-04T23:05:08;3.60;;;2.30;;
16837;SDS011;19510;54.486;9.046;2023-02-04T23:07:38;3.00;;;2.00;;
16837;SDS011;19510;54.486;9.046;2023-02-04T23:10:06;3.97;;;2.40;;
16837;SDS011;19510;54.486;9.046;2023-02-04T23:12:32;5.10;;;2.33;;
16837;SDS011;19510;54.486;9.046;2023-02-04T23:15:00;4.17;;;2.30;;
16837;SDS011;19510;54.486;9.046;2023-02-04T23:17:28;3.77;;;2.13;;
16837;SDS011;19510;54.486;9.046;2023-02-04T23:19:58;4.33;;;2.27;;
16837;SDS011;19510;54.486;9.046;2023-02-04T23:22:26;2.97;;;2.33;;
16837;SDS011;19510;54.486;9.046;2023-02-04T23:24:54;3.30;;;2.20;;
16837;SDS011;19510;54.486;9.046;2023-02-04T23:27:24;3.23;;;1.77;;
16837;SDS011;19510;54.486;9.046;2023-02-04T23:29:53;3.37;;;2.07;;
16837;SDS011;19510;54.486;9.046;2023-02-04T23:32:20;4.63;;;2.30;;
16837;SDS011;19510;54.486;9.046;2023-02-04T23:34:54;3.30;;;2.27;;
16837;SDS011;19510;54.486;9.046;2023-02-04T23:37:20;2.93;;;2.17;;
16837;SDS011;19510;54.486;9.046;2023-02-04T23:39:46;20.30;;;10.07;;